Woodbury, Texas
Current Conditions -  °F | °C
As of 10:15 AM on Wednesday 28 Jan 2015 (Local Time) from KINJ Reporting Station
Clear Clear  
Wind Chill: 18°   Ceiling: Unl
Heat Index: 18°   Visibility: 10mi
Dew Point:   Wind: 8mph
Humidity: 48%   Direction: 170°S
Pressure: 30.15"   Gusts: NA
Location:  32.0499°N, 97.1039°W
Report Text: KINJ 281615Z AUTO 17007KT 10SM CLR 18/07 A3015 RMK AO2 T01830071
Loading
Personal Weather Stations






























Interactive Weather Map New forecast layout! Learn more

10-Day Weather Forecast

Advertisements
Track Severe Weather on mobile